createdAt,value
2022-08-29T00:00:31.872Z,19.68
2022-08-29T00:03:00.352Z,19.71
2022-08-29T00:05:34.054Z,19.75
2022-08-29T00:08:04.932Z,19.85
2022-08-29T00:10:37.916Z,19.82
2022-08-29T00:13:06.607Z,19.97
2022-08-29T00:15:44.631Z,20.03
2022-08-29T00:18:16.221Z,20.01
2022-08-29T00:20:44.366Z,20.01
2022-08-29T00:23:11.910Z,19.83
2022-08-29T00:25:38.739Z,19.77
2022-08-29T00:28:06.054Z,19.83
2022-08-29T00:30:33.757Z,19.84
2022-08-29T00:33:00.429Z,19.79
2022-08-29T00:35:31.316Z,19.86
2022-08-29T00:37:58.801Z,19.83
2022-08-29T00:40:38.137Z,19.78
2022-08-29T00:43:06.422Z,19.91
2022-08-29T00:45:34.458Z,19.89
2022-08-29T00:48:05.535Z,20.00
2022-08-29T00:50:36.944Z,19.93
2022-08-29T00:53:06.306Z,20.00
2022-08-29T00:55:36.157Z,19.93
2022-08-29T00:58:08.513Z,19.92
2022-08-29T01:00:36.046Z,19.90
2022-08-29T01:03:04.688Z,19.85
2022-08-29T01:05:32.957Z,19.75
2022-08-29T01:07:59.862Z,19.57
2022-08-29T01:10:45.307Z,19.49
2022-08-29T01:13:12.543Z,19.49
2022-08-29T01:15:44.073Z,19.44
2022-08-29T01:18:12.052Z,19.26
2022-08-29T01:21:16.777Z,19.28
2022-08-29T01:24:13.930Z,19.04
2022-08-29T01:26:41.762Z,19.00
2022-08-29T01:29:09.229Z,18.94
2022-08-29T01:31:56.867Z,18.95
2022-08-29T01:34:26.134Z,18.84
2022-08-29T01:36:59.242Z,18.77
2022-08-29T01:39:29.840Z,18.75
2022-08-29T01:41:57.829Z,18.79
2022-08-29T01:44:26.334Z,18.88
2022-08-29T01:47:01.874Z,18.91
2022-08-29T01:49:31.286Z,18.88
2022-08-29T01:51:57.936Z,19.01
2022-08-29T01:54:24.685Z,18.93
2022-08-29T01:56:52.751Z,18.98
2022-08-29T01:59:23.683Z,18.99
2022-08-29T02:01:54.723Z,18.98
2022-08-29T02:04:21.665Z,18.93
2022-08-29T02:06:48.522Z,18.94
2022-08-29T02:09:15.170Z,18.92
2022-08-29T02:11:41.982Z,18.86
2022-08-29T02:14:09.732Z,18.91
2022-08-29T02:16:46.323Z,18.89
2022-08-29T02:19:13.118Z,18.86
2022-08-29T02:21:40.668Z,18.92
2022-08-29T02:24:24.371Z,19.01
2022-08-29T02:26:52.600Z,18.98
2022-08-29T02:29:19.223Z,18.95
2022-08-29T02:31:46.018Z,18.89
2022-08-29T02:34:13.028Z,18.84
2022-08-29T02:36:41.427Z,18.79
2022-08-29T02:39:08.701Z,18.79
2022-08-29T02:41:36.115Z,18.79
2022-08-29T02:44:03.927Z,18.83
2022-08-29T02:46:31.087Z,18.79
2022-08-29T02:49:01.481Z,18.91
2022-08-29T02:51:30.767Z,18.91
2022-08-29T02:53:58.421Z,18.79
2022-08-29T02:56:25.773Z,18.72
2022-08-29T02:58:52.719Z,18.61
2022-08-29T03:01:22.216Z,18.56
2022-08-29T03:03:50.464Z,18.54
2022-08-29T03:06:17.754Z,18.43
2022-08-29T03:08:44.443Z,18.41
2022-08-29T03:11:11.142Z,18.34
2022-08-29T03:13:37.863Z,18.34
2022-08-29T03:16:04.935Z,18.31
2022-08-29T03:18:31.718Z,18.30
2022-08-29T03:20:58.417Z,18.20
2022-08-29T03:23:25.323Z,18.07
2022-08-29T03:25:51.929Z,17.92
2022-08-29T03:28:18.655Z,17.95
2022-08-29T03:30:45.413Z,17.92
2022-08-29T03:33:12.296Z,18.01
2022-08-29T03:35:39.715Z,18.06
2022-08-29T03:38:07.079Z,18.13
2022-08-29T03:40:33.992Z,18.12
2022-08-29T03:43:00.933Z,18.11
2022-08-29T03:45:27.828Z,18.12
2022-08-29T03:47:54.546Z,18.20
2022-08-29T03:50:22.856Z,18.23
2022-08-29T03:52:49.700Z,18.23
2022-08-29T03:55:17.224Z,18.15
2022-08-29T03:57:45.196Z,18.19
2022-08-29T04:00:16.464Z,18.17
2022-08-29T04:02:46.035Z,18.21
2022-08-29T04:05:14.603Z,18.18
2022-08-29T04:07:47.379Z,18.28
2022-08-29T04:10:22.620Z,18.32
2022-08-29T04:12:53.917Z,18.39
2022-08-29T04:15:23.043Z,18.44
2022-08-29T04:17:54.449Z,18.53
2022-08-29T04:20:25.249Z,18.61
2022-08-29T04:22:54.366Z,18.70
2022-08-29T04:25:22.226Z,18.73
2022-08-29T04:27:49.688Z,18.75
2022-08-29T04:30:19.119Z,18.93
2022-08-29T04:32:46.121Z,19.01
2022-08-29T04:35:14.499Z,19.11
2022-08-29T04:37:41.807Z,19.17
2022-08-29T04:40:11.019Z,19.20
2022-08-29T04:42:38.729Z,19.17
2022-08-29T04:45:07.745Z,19.13
2022-08-29T04:47:37.789Z,19.13
2022-08-29T04:50:06.746Z,19.24
2022-08-29T04:52:33.434Z,19.38
2022-08-29T04:55:00.368Z,19.49
2022-08-29T04:57:27.039Z,19.57
2022-08-29T04:59:59.087Z,19.67
2022-08-29T05:02:27.891Z,19.86
2022-08-29T05:04:56.668Z,20.25
2022-08-29T05:07:25.927Z,20.72
2022-08-29T05:10:02.035Z,20.78
2022-08-29T05:12:30.446Z,20.64
2022-08-29T05:14:57.438Z,20.62
2022-08-29T05:17:24.760Z,20.59
2022-08-29T05:19:51.582Z,20.58
2022-08-29T05:22:19.949Z,21.11
2022-08-29T05:24:49.057Z,21.34
2022-08-29T05:27:19.061Z,21.73
2022-08-29T05:29:47.602Z,22.24
2022-08-29T05:32:15.476Z,22.84
2022-08-29T05:34:44.085Z,22.96
2022-08-29T05:37:14.175Z,23.20
2022-08-29T05:39:41.536Z,23.15
2022-08-29T05:42:09.936Z,23.27
2022-08-29T05:44:37.134Z,23.42
2022-08-29T05:47:05.982Z,23.15
2022-08-29T05:49:32.710Z,23.00
2022-08-29T05:52:00.739Z,22.63
2022-08-29T05:54:29.944Z,22.25
2022-08-29T05:56:57.227Z,21.96
2022-08-29T05:59:23.892Z,21.86
2022-08-29T06:01:50.666Z,21.84
2022-08-29T06:04:18.806Z,21.52
2022-08-29T06:06:45.484Z,21.57
2022-08-29T06:09:13.845Z,21.57
2022-08-29T06:11:40.775Z,21.30
2022-08-29T06:14:07.489Z,21.33
2022-08-29T06:16:34.242Z,21.35
2022-08-29T06:19:01.080Z,21.49
2022-08-29T06:21:27.847Z,21.50
2022-08-29T06:23:55.243Z,21.78
2022-08-29T06:26:22.191Z,22.03
2022-08-29T06:28:49.271Z,22.40
2022-08-29T06:31:20.907Z,22.66
2022-08-29T06:33:47.837Z,23.36
2022-08-29T06:36:14.528Z,23.67
2022-08-29T06:38:41.204Z,23.88
2022-08-29T06:41:12.525Z,24.34
2022-08-29T06:43:40.539Z,24.48
2022-08-29T06:46:08.310Z,24.86
2022-08-29T06:48:35.337Z,24.81
2022-08-29T06:51:02.806Z,25.16
2022-08-29T06:53:31.996Z,25.46
2022-08-29T06:56:11.094Z,25.54
2022-08-29T06:58:38.848Z,25.66
2022-08-29T07:01:14.219Z,26.09
2022-08-29T07:03:41.513Z,26.18
2022-08-29T07:06:09.449Z,26.18
2022-08-29T07:08:39.781Z,25.99
2022-08-29T07:11:09.287Z,25.97
2022-08-29T07:13:35.941Z,26.01
2022-08-29T07:16:03.245Z,26.06
2022-08-29T07:18:29.881Z,26.08
2022-08-29T07:20:56.550Z,25.61
2022-08-29T07:23:23.202Z,25.58
2022-08-29T07:25:49.832Z,25.99
2022-08-29T07:28:16.779Z,26.19
2022-08-29T07:30:43.581Z,26.05
2022-08-29T07:33:10.307Z,25.76
2022-08-29T07:35:37.186Z,26.15
2022-08-29T07:38:03.991Z,26.05
2022-08-29T07:40:30.813Z,26.40
2022-08-29T07:42:57.473Z,26.43
2022-08-29T07:45:24.409Z,26.50
2022-08-29T07:47:51.289Z,26.43
2022-08-29T07:50:18.036Z,26.65
2022-08-29T07:52:44.848Z,26.89
2022-08-29T07:55:12.081Z,26.89
2022-08-29T07:57:39.991Z,26.71
2022-08-29T08:00:12.254Z,27.00
2022-08-29T08:02:39.201Z,27.19
2022-08-29T08:05:07.055Z,27.48
2022-08-29T08:07:35.224Z,27.50
2022-08-29T08:10:02.872Z,27.03
2022-08-29T08:12:29.593Z,26.69
2022-08-29T08:14:57.173Z,26.75
2022-08-29T08:17:24.482Z,26.68
2022-08-29T08:19:51.096Z,26.60
2022-08-29T08:22:17.799Z,26.46
2022-08-29T08:24:45.115Z,26.47
2022-08-29T08:27:11.875Z,26.16
2022-08-29T08:29:38.550Z,26.36
2022-08-29T08:32:05.337Z,26.61
2022-08-29T08:34:35.761Z,26.83
2022-08-29T08:37:07.998Z,27.18
2022-08-29T08:39:35.016Z,27.20
2022-08-29T08:42:16.780Z,27.15
2022-08-29T08:45:01.864Z,26.90
2022-08-29T08:47:33.561Z,26.74
2022-08-29T08:50:20.758Z,26.75
2022-08-29T08:52:58.914Z,26.86
2022-08-29T08:55:45.954Z,26.73
2022-08-29T08:58:38.999Z,26.87
2022-08-29T09:01:30.216Z,26.01
2022-08-29T09:04:08.796Z,25.75
2022-08-29T09:06:42.876Z,25.81
2022-08-29T09:09:29.836Z,25.79
2022-08-29T09:12:13.545Z,25.53
2022-08-29T09:14:44.141Z,25.69
2022-08-29T09:17:22.225Z,25.74
2022-08-29T09:19:50.966Z,25.97
2022-08-29T09:22:32.737Z,25.76
2022-08-29T09:25:06.358Z,25.66
2022-08-29T09:27:35.427Z,25.76
2022-08-29T09:30:20.586Z,26.03
2022-08-29T09:33:01.733Z,26.23
2022-08-29T09:35:40.657Z,26.32
2022-08-29T09:38:28.076Z,26.27
2022-08-29T09:41:04.246Z,26.32
2022-08-29T09:43:48.098Z,26.32
2022-08-29T09:46:23.468Z,26.48
2022-08-29T09:48:53.582Z,26.80
2022-08-29T09:51:30.545Z,27.13
2022-08-29T09:54:14.653Z,26.90
2022-08-29T09:56:52.149Z,26.89
2022-08-29T09:59:33.848Z,27.18
2022-08-29T10:02:16.806Z,27.03
2022-08-29T10:04:50.826Z,26.35
2022-08-29T10:07:28.180Z,26.18
2022-08-29T10:09:57.796Z,26.19
2022-08-29T10:12:34.152Z,26.50
2022-08-29T10:15:05.696Z,26.36
2022-08-29T10:17:57.380Z,26.34
2022-08-29T10:20:35.415Z,26.71
2022-08-29T10:23:08.931Z,27.10
2022-08-29T10:25:38.128Z,27.81
2022-08-29T10:28:18.646Z,28.44
2022-08-29T10:30:54.781Z,28.99
2022-08-29T10:33:31.591Z,29.58
2022-08-29T10:36:25.752Z,29.65
2022-08-29T10:39:02.934Z,29.13
2022-08-29T10:41:29.535Z,29.43
2022-08-29T10:44:10.065Z,29.83
2022-08-29T10:46:45.980Z,29.78
2022-08-29T10:49:51.324Z,29.75
2022-08-29T10:52:51.451Z,29.99
2022-08-29T10:55:42.115Z,30.16
2022-08-29T10:58:18.084Z,29.70
2022-08-29T11:01:08.905Z,29.72
2022-08-29T11:03:47.564Z,29.08
2022-08-29T11:06:22.370Z,28.90
2022-08-29T11:08:58.493Z,28.44
2022-08-29T11:11:26.881Z,28.77
2022-08-29T11:14:03.534Z,28.51
2022-08-29T11:16:41.339Z,28.30
2022-08-29T11:19:22.627Z,28.37
2022-08-29T11:21:52.542Z,28.11
2022-08-29T11:24:29.661Z,27.76
2022-08-29T11:27:16.563Z,27.54
2022-08-29T11:30:18.305Z,27.38
2022-08-29T11:33:08.484Z,27.47
2022-08-29T11:35:47.021Z,27.80
2022-08-29T11:38:43.918Z,27.90
2022-08-29T11:41:28.577Z,28.02
2022-08-29T11:44:36.387Z,28.32
2022-08-29T11:47:37.675Z,28.39
2022-08-29T11:50:30.796Z,28.51
2022-08-29T11:53:11.558Z,28.93
2022-08-29T11:55:44.156Z,28.87
2022-08-29T11:58:13.727Z,29.14
2022-08-29T12:00:44.266Z,29.44
2022-08-29T12:03:40.188Z,29.83
2022-08-29T12:06:29.909Z,29.73
2022-08-29T12:09:14.421Z,29.74
2022-08-29T12:11:59.444Z,29.58
2022-08-29T12:14:48.662Z,29.19
2022-08-29T12:17:44.853Z,29.01
2022-08-29T12:20:17.860Z,29.11
2022-08-29T12:23:07.357Z,29.30
2022-08-29T12:25:42.747Z,29.39
2022-08-29T12:28:19.859Z,29.39
2022-08-29T12:31:11.958Z,29.44
2022-08-29T12:34:06.880Z,29.38
2022-08-29T12:36:52.118Z,29.38
2022-08-29T12:39:25.180Z,29.40
2022-08-29T12:42:16.322Z,29.43
2022-08-29T12:44:50.438Z,29.47
2022-08-29T12:47:28.441Z,29.53
2022-08-29T12:49:58.748Z,29.56
2022-08-29T12:52:35.680Z,29.49
2022-08-29T12:55:28.819Z,29.41
2022-08-29T12:57:57.579Z,29.29
2022-08-29T13:00:28.589Z,29.40
2022-08-29T13:03:02.071Z,29.35
2022-08-29T13:05:31.350Z,29.40
2022-08-29T13:08:10.981Z,29.41
2022-08-29T13:10:55.730Z,29.37
2022-08-29T13:13:24.177Z,29.19
2022-08-29T13:15:54.021Z,28.87
2022-08-29T13:18:21.906Z,28.37
2022-08-29T13:21:14.018Z,27.42
2022-08-29T13:23:48.325Z,26.96
2022-08-29T13:26:14.908Z,26.68
2022-08-29T13:28:54.500Z,26.53
2022-08-29T13:31:27.136Z,26.11
2022-08-29T13:33:56.385Z,26.06
2022-08-29T13:36:49.413Z,26.03
2022-08-29T13:39:25.428Z,26.02
2022-08-29T13:41:57.897Z,25.80
2022-08-29T13:44:28.724Z,25.58
2022-08-29T13:46:59.430Z,25.32
2022-08-29T13:49:35.533Z,24.90
2022-08-29T13:52:03.126Z,24.55
2022-08-29T13:54:30.879Z,24.24
2022-08-29T13:56:59.262Z,23.81
2022-08-29T13:59:30.598Z,23.69
2022-08-29T14:02:10.113Z,23.58
2022-08-29T14:04:39.890Z,23.23
2022-08-29T14:07:11.509Z,23.01
2022-08-29T14:09:42.197Z,22.77
2022-08-29T14:12:09.749Z,22.16
2022-08-29T14:14:36.481Z,21.50
2022-08-29T14:17:03.126Z,21.36
2022-08-29T14:19:31.186Z,21.19
2022-08-29T14:22:02.114Z,21.05
2022-08-29T14:24:31.048Z,21.07
2022-08-29T14:27:01.880Z,21.23
2022-08-29T14:29:31.061Z,21.26
2022-08-29T14:31:59.297Z,21.35
2022-08-29T14:34:32.584Z,21.40
2022-08-29T14:37:00.562Z,21.49
2022-08-29T14:39:27.436Z,21.54
2022-08-29T14:41:54.948Z,21.54
2022-08-29T14:44:22.248Z,21.62
2022-08-29T14:46:50.218Z,21.63
2022-08-29T14:49:17.043Z,21.37
2022-08-29T14:51:44.732Z,21.21
2022-08-29T14:54:12.709Z,20.86
2022-08-29T14:56:50.614Z,20.54
2022-08-29T14:59:19.410Z,20.61
2022-08-29T15:01:52.972Z,20.66
2022-08-29T15:04:21.707Z,20.77
2022-08-29T15:07:02.732Z,20.87
2022-08-29T15:09:30.004Z,20.91
2022-08-29T15:11:56.642Z,21.11
2022-08-29T15:14:23.570Z,21.26
2022-08-29T15:16:50.257Z,21.29
2022-08-29T15:19:53.689Z,21.17
2022-08-29T15:22:04.643Z,21.13
2022-08-29T15:24:32.113Z,21.15
2022-08-29T15:26:59.674Z,21.18
2022-08-29T15:29:26.493Z,21.24
2022-08-29T15:31:54.357Z,21.33
2022-08-29T15:34:21.018Z,21.45
2022-08-29T15:36:47.619Z,21.52
2022-08-29T15:39:14.350Z,21.56
2022-08-29T15:41:41.581Z,21.54
2022-08-29T15:44:08.321Z,21.44
2022-08-29T15:46:37.885Z,21.52
2022-08-29T15:49:08.848Z,21.46
2022-08-29T15:51:36.373Z,21.16
2022-08-29T15:54:03.980Z,21.04
2022-08-29T15:56:35.099Z,21.13
2022-08-29T15:59:07.026Z,21.06
2022-08-29T16:01:53.759Z,21.11
2022-08-29T16:04:22.810Z,21.01
2022-08-29T16:06:51.405Z,21.04
2022-08-29T16:09:18.759Z,21.04
2022-08-29T16:11:47.158Z,20.96
2022-08-29T16:17:01.967Z,20.72
2022-08-29T16:19:29.431Z,20.63
2022-08-29T16:21:59.999Z,20.41
2022-08-29T16:24:28.840Z,20.46
2022-08-29T16:26:55.641Z,20.47
2022-08-29T16:29:26.826Z,20.49
2022-08-29T16:31:57.915Z,20.45
2022-08-29T16:34:26.977Z,20.40
2022-08-29T16:37:01.881Z,20.56
2022-08-29T16:39:29.359Z,20.53
2022-08-29T16:41:56.217Z,20.41
2022-08-29T16:44:23.300Z,20.39
2022-08-29T16:46:50.009Z,20.32
2022-08-29T16:49:16.939Z,20.36
2022-08-29T16:51:43.745Z,20.33
2022-08-29T16:54:10.543Z,20.41
2022-08-29T16:56:37.885Z,20.32
2022-08-29T16:59:04.673Z,20.39
2022-08-29T17:01:38.974Z,20.50
2022-08-29T17:04:12.680Z,20.49
2022-08-29T17:06:39.527Z,20.49
2022-08-29T17:09:08.926Z,20.39
2022-08-29T17:11:37.098Z,20.28
2022-08-29T17:14:05.678Z,20.34
2022-08-29T17:16:32.816Z,20.41
2022-08-29T17:18:59.947Z,20.43
2022-08-29T17:21:27.688Z,20.44
2022-08-29T17:23:55.491Z,20.34
2022-08-29T17:26:22.978Z,20.30
2022-08-29T17:28:50.310Z,20.33
2022-08-29T17:31:19.074Z,20.33
2022-08-29T17:33:46.421Z,20.33
2022-08-29T17:36:13.647Z,20.42
2022-08-29T17:38:42.582Z,20.39
2022-08-29T17:41:14.961Z,20.44
2022-08-29T17:43:43.575Z,20.45
2022-08-29T17:46:11.175Z,20.57
2022-08-29T17:48:37.877Z,20.54
2022-08-29T17:51:04.794Z,20.56
2022-08-29T17:53:32.570Z,20.63
2022-08-29T17:56:10.112Z,20.65
2022-08-29T17:58:37.881Z,20.68
2022-08-29T18:01:04.576Z,20.60
2022-08-29T18:03:31.203Z,20.49
2022-08-29T18:05:57.781Z,20.50
2022-08-29T18:08:24.377Z,20.44
2022-08-29T18:10:51.766Z,20.47
2022-08-29T18:13:21.789Z,20.39
2022-08-29T18:15:50.655Z,20.26
2022-08-29T18:18:20.211Z,20.08
2022-08-29T18:20:47.103Z,20.00
2022-08-29T18:23:13.746Z,20.08
2022-08-29T18:25:40.426Z,19.93
2022-08-29T18:28:08.400Z,19.74
2022-08-29T18:30:35.557Z,19.83
2022-08-29T18:33:02.417Z,19.73
2022-08-29T18:35:29.523Z,19.65
2022-08-29T18:37:56.156Z,19.46
2022-08-29T18:40:23.380Z,19.45
2022-08-29T18:42:50.115Z,19.45
2022-08-29T18:45:16.784Z,19.45
2022-08-29T18:47:43.517Z,19.40
2022-08-29T18:50:29.285Z,19.40
2022-08-29T18:52:56.647Z,19.42
2022-08-29T18:55:23.980Z,19.29
2022-08-29T18:57:52.350Z,19.24
2022-08-29T19:00:19.045Z,19.20
2022-08-29T19:02:45.772Z,19.18
2022-08-29T19:05:12.907Z,19.12
2022-08-29T19:07:39.550Z,19.19
2022-08-29T19:10:07.277Z,19.15
2022-08-29T19:12:34.356Z,19.07
2022-08-29T19:15:01.004Z,19.17
2022-08-29T19:17:27.851Z,19.01
2022-08-29T19:20:13.192Z,18.94
2022-08-29T19:22:39.839Z,18.78
2022-08-29T19:25:08.756Z,18.68
2022-08-29T19:27:43.768Z,18.36
2022-08-29T19:30:13.523Z,18.28
2022-08-29T19:32:40.949Z,18.10
2022-08-29T19:35:11.203Z,18.06
2022-08-29T19:37:39.572Z,18.05
2022-08-29T19:40:07.408Z,18.03
2022-08-29T19:42:34.250Z,17.97
2022-08-29T19:45:02.066Z,17.96
2022-08-29T19:47:30.091Z,18.06
2022-08-29T19:49:56.904Z,18.08
2022-08-29T19:52:24.175Z,18.04
2022-08-29T19:54:51.148Z,18.13
2022-08-29T19:57:18.168Z,18.12
2022-08-29T19:59:45.862Z,18.20
2022-08-29T20:02:15.614Z,18.26
2022-08-29T20:04:43.072Z,18.26
2022-08-29T20:07:10.142Z,18.43
2022-08-29T20:09:37.001Z,18.49
2022-08-29T20:12:05.444Z,18.51
2022-08-29T20:14:32.514Z,18.62
2022-08-29T20:16:59.195Z,18.62
2022-08-29T20:19:26.939Z,18.57
2022-08-29T20:21:53.658Z,18.63
2022-08-29T20:24:20.421Z,18.65
2022-08-29T20:26:49.565Z,18.62
2022-08-29T20:29:17.162Z,18.75
2022-08-29T20:31:44.743Z,18.65
2022-08-29T20:34:11.767Z,18.66
2022-08-29T20:36:57.832Z,18.69
2022-08-29T20:39:25.577Z,18.75
2022-08-29T20:41:55.983Z,18.72
2022-08-29T20:44:28.144Z,18.61
2022-08-29T20:46:57.441Z,18.65
2022-08-29T20:49:26.818Z,18.62
2022-08-29T20:51:53.594Z,18.49
2022-08-29T20:54:22.845Z,18.61
2022-08-29T20:56:50.480Z,18.68
2022-08-29T20:59:17.529Z,18.62
2022-08-29T21:01:44.577Z,18.41
2022-08-29T21:04:30.621Z,18.37
2022-08-29T21:07:02.236Z,18.27
2022-08-29T21:09:29.511Z,18.31
2022-08-29T21:11:56.317Z,18.30
2022-08-29T21:14:23.420Z,18.35
2022-08-29T21:16:56.799Z,18.40
2022-08-29T21:19:24.704Z,18.40
2022-08-29T21:21:51.477Z,18.36
2022-08-29T21:24:18.501Z,18.40
2022-08-29T21:26:45.372Z,18.42
2022-08-29T21:29:12.025Z,18.49
2022-08-29T21:31:39.043Z,18.55
2022-08-29T21:34:10.421Z,18.54
2022-08-29T21:36:38.286Z,18.48
2022-08-29T21:39:07.716Z,18.45
2022-08-29T21:41:38.823Z,18.46
2022-08-29T21:44:06.296Z,18.40
2022-08-29T21:46:36.776Z,18.40
2022-08-29T21:49:06.827Z,18.45
2022-08-29T21:51:34.580Z,18.40
2022-08-29T21:54:02.287Z,18.57
2022-08-29T21:56:31.261Z,18.69
2022-08-29T21:58:58.729Z,18.65
2022-08-29T22:01:32.059Z,18.78
2022-08-29T22:04:01.006Z,18.82
2022-08-29T22:06:28.524Z,18.94
2022-08-29T22:08:55.585Z,18.97
2022-08-29T22:11:25.489Z,19.07
2022-08-29T22:14:05.019Z,19.05
2022-08-29T22:16:31.790Z,19.11
2022-08-29T22:19:01.885Z,19.17
2022-08-29T22:21:33.179Z,18.72
2022-08-29T22:24:00.756Z,19.06
2022-08-29T22:26:28.383Z,18.94
2022-08-29T22:28:55.794Z,18.78
2022-08-29T22:31:23.139Z,18.62
2022-08-29T22:33:50.170Z,18.37
2022-08-29T22:36:17.149Z,18.31
2022-08-29T22:38:45.857Z,18.21
2022-08-29T22:41:16.415Z,18.16
2022-08-29T22:43:45.163Z,18.23
2022-08-29T22:46:19.130Z,18.31
2022-08-29T22:48:45.830Z,18.34
2022-08-29T22:51:14.192Z,18.40
2022-08-29T22:53:41.534Z,18.45
2022-08-29T22:56:08.956Z,18.47
2022-08-29T22:58:36.576Z,18.43
2022-08-29T23:01:04.551Z,18.30
2022-08-29T23:03:32.144Z,18.28
2022-08-29T23:05:59.636Z,18.39
2022-08-29T23:08:26.342Z,18.45
2022-08-29T23:10:54.448Z,18.48
2022-08-29T23:13:22.888Z,18.66
2022-08-29T23:15:49.695Z,18.79
2022-08-29T23:18:16.464Z,18.88
2022-08-29T23:20:43.164Z,18.94
2022-08-29T23:23:13.837Z,18.99
2022-08-29T23:25:40.489Z,18.97
2022-08-29T23:28:07.228Z,18.88
2022-08-29T23:30:34.197Z,18.80
2022-08-29T23:33:00.936Z,18.72
2022-08-29T23:35:27.586Z,18.53
2022-08-29T23:37:54.417Z,18.49
2022-08-29T23:40:21.595Z,18.35
2022-08-29T23:42:48.872Z,18.19
2022-08-29T23:45:15.779Z,18.10
2022-08-29T23:47:42.575Z,18.25
2022-08-29T23:50:09.812Z,18.25
2022-08-29T23:52:36.396Z,18.31
2022-08-29T23:55:03.311Z,18.32
2022-08-29T23:57:30.038Z,18.33
